createdAt,value
2019-04-06T00:00:47.585Z,33.30
2019-04-06T00:03:20.965Z,33.30
2019-04-06T00:05:54.867Z,33.36
2019-04-06T00:08:28.518Z,33.40
2019-04-06T00:11:01.949Z,33.38
2019-04-06T00:13:35.307Z,33.41
2019-04-06T00:16:10.338Z,33.47
2019-04-06T00:18:43.489Z,33.42
2019-04-06T00:21:17.016Z,33.50
2019-04-06T00:23:50.369Z,33.52
2019-04-06T00:26:23.810Z,33.53
2019-04-06T00:28:57.151Z,33.53
2019-04-06T00:31:30.553Z,33.58
2019-04-06T00:34:04.118Z,33.84
2019-04-06T00:36:37.488Z,33.58
2019-04-06T00:39:10.845Z,33.62
2019-04-06T00:41:44.297Z,33.61
2019-04-06T00:44:17.716Z,33.63
2019-04-06T00:46:51.375Z,33.65
2019-04-06T00:49:24.850Z,33.69
2019-04-06T00:51:58.388Z,33.70
2019-04-06T00:54:32.091Z,33.74
2019-04-06T00:57:05.667Z,33.74
2019-04-06T00:59:40.773Z,33.82
2019-04-06T01:02:14.210Z,33.81
2019-04-06T01:04:47.567Z,33.91
2019-04-06T01:07:23.088Z,33.87
2019-04-06T01:09:56.105Z,33.85
2019-04-06T01:12:30.799Z,33.89
2019-04-06T01:15:05.584Z,33.91
2019-04-06T01:17:38.948Z,34.01
2019-04-06T01:20:12.480Z,33.94
2019-04-06T01:22:47.443Z,33.99
2019-04-06T01:25:20.820Z,34.02
2019-04-06T01:27:54.179Z,34.02
2019-04-06T01:30:27.622Z,34.02
2019-04-06T01:33:01.063Z,34.19
2019-04-06T01:35:34.410Z,34.13
2019-04-06T01:38:07.812Z,34.10
2019-04-06T01:40:41.212Z,34.11
2019-04-06T01:43:14.674Z,34.12
2019-04-06T01:45:48.061Z,34.10
2019-04-06T01:48:21.756Z,34.25
2019-04-06T01:50:55.305Z,34.17
2019-04-06T01:53:28.696Z,34.21
2019-04-06T01:56:02.609Z,34.20
2019-04-06T01:58:36.281Z,34.27
2019-04-06T02:01:09.929Z,34.23
2019-04-06T02:03:43.673Z,34.36
2019-04-06T02:06:17.237Z,34.33
2019-04-06T02:08:50.665Z,34.38
2019-04-06T02:11:24.078Z,34.40
2019-04-06T02:13:57.510Z,34.38
2019-04-06T02:16:31.012Z,34.35
2019-04-06T02:19:04.369Z,34.36
2019-04-06T02:21:37.658Z,34.40
2019-04-06T02:24:11.158Z,34.42
2019-04-06T02:26:44.453Z,34.41
2019-04-06T02:29:17.813Z,34.48
2019-04-06T02:31:51.146Z,34.50
2019-04-06T02:34:24.535Z,34.49
2019-04-06T02:36:57.878Z,34.43
2019-04-06T02:39:31.234Z,34.56
2019-04-06T02:42:04.610Z,34.60
2019-04-06T02:44:38.061Z,34.64
2019-04-06T02:47:11.400Z,34.59
2019-04-06T02:49:44.776Z,34.60
2019-04-06T02:52:18.179Z,34.68
2019-04-06T02:54:51.971Z,34.81
2019-04-06T02:57:25.354Z,34.69
2019-04-06T02:59:58.779Z,34.67
2019-04-06T03:02:32.057Z,34.67
2019-04-06T03:05:06.579Z,34.71
2019-04-06T03:07:39.889Z,34.81
2019-04-06T03:10:13.418Z,34.74
2019-04-06T03:12:46.751Z,34.82
2019-04-06T03:15:20.080Z,34.80
2019-04-06T03:17:53.569Z,34.84
2019-04-06T03:20:27.191Z,35.02
2019-04-06T03:23:00.769Z,34.87
2019-04-06T03:25:34.181Z,34.99
2019-04-06T03:28:07.566Z,34.92
2019-04-06T03:30:41.255Z,34.96
2019-04-06T03:33:14.701Z,34.91
2019-04-06T03:35:49.991Z,34.76
2019-04-06T03:38:23.356Z,34.74
2019-04-06T03:40:56.794Z,34.82
2019-04-06T03:43:30.178Z,34.79
2019-04-06T03:46:03.605Z,34.61
2019-04-06T03:48:36.992Z,34.48
2019-04-06T03:51:10.131Z,34.34
2019-04-06T03:53:43.477Z,34.23
2019-04-06T03:56:16.872Z,34.44
2019-04-06T03:58:52.214Z,33.62
2019-04-06T04:01:27.565Z,33.84
2019-04-06T04:04:01.190Z,33.76
2019-04-06T04:06:34.862Z,33.69
2019-04-06T04:09:08.513Z,33.50
2019-04-06T04:11:41.879Z,33.34
2019-04-06T04:14:15.508Z,33.11
2019-04-06T04:16:48.870Z,32.94
2019-04-06T04:19:22.361Z,32.67
2019-04-06T04:21:55.889Z,32.54
2019-04-06T04:24:29.224Z,32.34
2019-04-06T04:27:02.548Z,32.36
2019-04-06T04:29:35.762Z,32.19
2019-04-06T04:32:09.238Z,32.15
2019-04-06T04:34:42.953Z,32.02
2019-04-06T04:37:16.612Z,32.02
2019-04-06T04:39:50.159Z,31.80
2019-04-06T04:42:23.667Z,31.77
2019-04-06T04:44:57.066Z,31.73
2019-04-06T04:47:30.620Z,31.82
2019-04-06T04:50:05.212Z,31.73
2019-04-06T04:52:38.714Z,31.74
2019-04-06T04:55:12.361Z,31.62
2019-04-06T04:57:45.801Z,31.72
2019-04-06T05:00:19.160Z,31.69
2019-04-06T05:02:52.577Z,31.63
2019-04-06T05:05:25.681Z,31.47
2019-04-06T05:07:59.258Z,31.67
2019-04-06T05:10:32.745Z,31.73
2019-04-06T05:13:06.169Z,31.43
2019-04-06T05:15:59.211Z,31.72
2019-04-06T05:18:32.707Z,31.71
2019-04-06T05:21:06.298Z,31.80
2019-04-06T05:23:39.743Z,31.73
2019-04-06T05:26:13.300Z,31.68
2019-04-06T05:28:46.877Z,31.69
2019-04-06T05:31:20.264Z,31.79
2019-04-06T05:33:54.068Z,31.83
2019-04-06T05:36:28.546Z,31.84
2019-04-06T05:39:02.044Z,31.63
2019-04-06T05:41:36.431Z,31.66
2019-04-06T05:44:09.773Z,31.81
2019-04-06T05:46:43.175Z,31.92
2019-04-06T05:49:16.610Z,31.92
2019-04-06T05:51:50.263Z,31.95
2019-04-06T05:54:25.389Z,31.91
2019-04-06T05:56:58.700Z,31.86
2019-04-06T05:59:32.075Z,32.01
2019-04-06T06:02:05.393Z,31.99
2019-04-06T06:04:40.469Z,31.95
2019-04-06T06:07:14.005Z,31.99
2019-04-06T06:09:47.353Z,32.03
2019-04-06T06:12:20.832Z,32.10
2019-04-06T06:14:54.377Z,32.08
2019-04-06T06:17:27.759Z,32.08
2019-04-06T06:20:01.295Z,32.20
2019-04-06T06:22:34.873Z,32.23
2019-04-06T06:25:09.176Z,32.32
2019-04-06T06:27:42.691Z,32.14
2019-04-06T06:30:16.210Z,32.16
2019-04-06T06:32:49.521Z,32.22
2019-04-06T06:35:23.029Z,32.36
2019-04-06T06:37:56.734Z,32.33
2019-04-06T06:40:30.137Z,32.36
2019-04-06T06:43:03.635Z,32.47
2019-04-06T06:45:37.140Z,32.64
2019-04-06T06:48:10.466Z,32.75
2019-04-06T06:50:43.886Z,32.84
2019-04-06T06:53:17.186Z,32.87
2019-04-06T06:55:52.107Z,33.02
2019-04-06T06:58:26.260Z,32.96
2019-04-06T07:00:59.901Z,33.08
2019-04-06T07:03:33.283Z,33.03
2019-04-06T07:06:06.913Z,33.07
2019-04-06T07:08:40.460Z,33.14
2019-04-06T07:11:13.833Z,33.17
2019-04-06T07:13:47.161Z,33.12
2019-04-06T07:16:20.777Z,33.18
2019-04-06T07:18:54.323Z,33.34
2019-04-06T07:24:01.654Z,33.30
2019-04-06T07:26:34.956Z,33.42
2019-04-06T07:29:08.356Z,33.33
2019-04-06T07:31:42.003Z,33.39
2019-04-06T07:34:15.340Z,33.51
2019-04-06T07:36:49.110Z,33.48
2019-04-06T07:39:22.609Z,33.48
2019-04-06T07:41:55.829Z,33.50
2019-04-06T07:44:29.477Z,33.55
2019-04-06T07:47:03.214Z,33.75
2019-04-06T07:49:36.792Z,33.66
2019-04-06T07:52:10.329Z,33.63
2019-04-06T07:54:44.716Z,33.78
2019-04-06T07:57:18.081Z,33.68
2019-04-06T07:59:51.586Z,33.72
2019-04-06T08:02:25.159Z,33.68
2019-04-06T08:04:58.975Z,33.65
2019-04-06T08:07:32.834Z,33.63
2019-04-06T08:10:07.518Z,33.59
2019-04-06T08:12:40.940Z,33.60
2019-04-06T08:15:15.371Z,33.50
2019-04-06T08:17:48.896Z,33.43
2019-04-06T08:20:22.231Z,33.36
2019-04-06T08:22:55.821Z,33.27
2019-04-06T08:25:30.212Z,33.17
2019-04-06T08:28:03.548Z,33.10
2019-04-06T08:30:45.361Z,33.14
2019-04-06T08:33:11.980Z,33.09
2019-04-06T08:35:45.322Z,32.99
2019-04-06T08:38:18.748Z,32.91
2019-04-06T08:40:52.211Z,32.92
2019-04-06T08:43:25.740Z,32.75
2019-04-06T08:45:59.070Z,32.62
2019-04-06T08:48:32.579Z,32.80
2019-04-06T08:51:06.101Z,32.86
2019-04-06T08:53:39.436Z,32.53
2019-04-06T08:56:12.788Z,32.59
2019-04-06T08:58:46.179Z,32.49
2019-04-06T09:01:19.550Z,32.56
2019-04-06T09:03:53.956Z,32.50
2019-04-06T09:06:28.476Z,32.51
2019-04-06T09:09:01.772Z,32.54
2019-04-06T09:11:36.583Z,32.44
2019-04-06T09:14:09.958Z,32.49
2019-04-06T09:16:43.402Z,32.46
2019-04-06T09:19:18.381Z,32.38
2019-04-06T09:21:51.932Z,32.50
2019-04-06T09:24:25.420Z,32.49
2019-04-06T09:26:59.387Z,32.54
2019-04-06T09:29:32.908Z,32.62
2019-04-06T09:32:06.312Z,32.40
2019-04-06T09:34:39.672Z,32.28
2019-04-06T09:37:13.496Z,32.28
2019-04-06T09:39:46.921Z,32.54
2019-04-06T09:42:20.252Z,32.36
2019-04-06T09:44:53.668Z,32.49
2019-04-06T09:47:28.731Z,32.64
2019-04-06T09:50:02.921Z,32.56
2019-04-06T09:52:36.678Z,32.72
2019-04-06T09:55:10.248Z,32.68
2019-04-06T09:57:43.610Z,32.76
2019-04-06T10:00:17.046Z,32.70
2019-04-06T10:02:50.357Z,32.83
2019-04-06T10:05:25.393Z,32.72
2019-04-06T10:07:58.984Z,32.67
2019-04-06T10:10:32.325Z,32.82
2019-04-06T10:13:05.934Z,32.82
2019-04-06T10:15:39.349Z,32.70
2019-04-06T10:18:12.810Z,32.70
2019-04-06T10:20:47.324Z,32.67
2019-04-06T10:23:20.812Z,32.74
2019-04-06T10:25:54.424Z,32.76
2019-04-06T10:28:28.132Z,32.93
2019-04-06T10:31:01.529Z,32.93
2019-04-06T10:33:34.837Z,32.90
2019-04-06T10:36:08.200Z,32.94
2019-04-06T10:38:41.684Z,32.99
2019-04-06T10:41:15.191Z,33.12
2019-04-06T10:43:48.867Z,33.01
2019-04-06T10:46:22.322Z,33.02
2019-04-06T10:48:55.714Z,32.93
2019-04-06T10:51:29.398Z,32.95
2019-04-06T10:54:03.056Z,32.76
2019-04-06T10:56:36.714Z,32.58
2019-04-06T10:59:11.277Z,32.37
2019-04-06T11:01:44.683Z,32.48
2019-04-06T11:04:18.344Z,32.60
2019-04-06T11:06:52.090Z,32.61
2019-04-06T11:09:25.532Z,32.69
2019-04-06T11:12:00.597Z,32.66
2019-04-06T11:14:33.950Z,32.65
2019-04-06T11:17:08.049Z,32.67
2019-04-06T11:19:41.485Z,32.64
2019-04-06T11:22:17.100Z,32.73
2019-04-06T11:24:49.913Z,32.71
2019-04-06T11:27:23.265Z,32.74
2019-04-06T11:29:56.891Z,32.75
2019-04-06T11:32:30.253Z,32.71
2019-04-06T11:35:05.373Z,32.72
2019-04-06T11:37:38.910Z,32.73
2019-04-06T11:40:12.361Z,32.73
2019-04-06T11:42:45.678Z,32.75
2019-04-06T11:45:19.061Z,32.79
2019-04-06T11:47:52.376Z,32.68
2019-04-06T11:50:25.828Z,32.63
2019-04-06T11:52:59.258Z,32.76
2019-04-06T11:55:32.736Z,32.72
2019-04-06T11:58:06.233Z,32.72
2019-04-06T12:00:39.606Z,32.72
2019-04-06T12:03:12.771Z,32.85
2019-04-06T12:05:46.355Z,32.83
2019-04-06T12:08:20.185Z,32.88
2019-04-06T12:10:53.730Z,32.94
2019-04-06T12:13:27.337Z,32.87
2019-04-06T12:16:00.772Z,32.91
2019-04-06T12:18:34.335Z,32.74
2019-04-06T12:21:07.727Z,32.67
2019-04-06T12:23:41.070Z,32.75
2019-04-06T12:26:14.430Z,32.67
2019-04-06T12:28:48.018Z,32.75
2019-04-06T12:31:21.481Z,32.69
2019-04-06T12:33:56.681Z,32.80
2019-04-06T12:36:30.158Z,32.70
2019-04-06T12:39:05.818Z,32.72
2019-04-06T12:41:39.419Z,32.73
2019-04-06T12:44:13.891Z,32.80
2019-04-06T12:46:48.840Z,32.86
2019-04-06T12:49:22.213Z,32.74
2019-04-06T12:51:55.637Z,32.67
2019-04-06T12:54:29.458Z,32.71
2019-04-06T12:57:03.028Z,32.77
2019-04-06T12:59:36.559Z,32.72
2019-04-06T13:02:09.925Z,32.73
2019-04-06T13:04:43.324Z,32.70
2019-04-06T13:07:16.698Z,32.72
2019-04-06T13:09:50.019Z,32.67
2019-04-06T13:12:23.432Z,32.54
2019-04-06T13:14:56.911Z,32.49
2019-04-06T13:17:30.335Z,32.62
2019-04-06T13:20:05.899Z,32.56
2019-04-06T13:22:39.581Z,32.65
2019-04-06T13:25:13.037Z,32.58
2019-04-06T13:27:46.376Z,32.64
2019-04-06T13:30:19.945Z,32.60
2019-04-06T13:32:53.350Z,32.72
2019-04-06T13:35:26.818Z,32.66
2019-04-06T13:38:00.513Z,32.67
2019-04-06T13:40:34.086Z,32.66
2019-04-06T13:43:07.425Z,32.56
2019-04-06T13:45:41.179Z,32.57
2019-04-06T13:48:14.898Z,32.49
2019-04-06T13:50:48.413Z,32.49
2019-04-06T13:53:21.759Z,32.43
2019-04-06T13:55:55.327Z,32.42
2019-04-06T13:58:29.042Z,32.35
2019-04-06T14:01:13.843Z,32.29
2019-04-06T14:03:37.490Z,32.30
2019-04-06T14:06:11.030Z,32.26
2019-04-06T14:08:44.417Z,32.32
2019-04-06T14:11:17.823Z,32.37
2019-04-06T14:13:51.383Z,32.29
2019-04-06T14:16:24.876Z,32.16
2019-04-06T14:18:58.186Z,32.17
2019-04-06T14:21:31.566Z,32.15
2019-04-06T14:24:05.335Z,32.13
2019-04-06T14:26:38.775Z,32.16
2019-04-06T14:29:12.046Z,32.17
2019-04-06T14:31:45.373Z,32.18
2019-04-06T14:34:18.699Z,32.18
2019-04-06T14:36:53.570Z,32.14
2019-04-06T14:39:27.298Z,32.16
2019-04-06T14:42:01.123Z,32.16
2019-04-06T14:44:34.459Z,32.18
2019-04-06T14:47:07.885Z,32.15
2019-04-06T14:49:41.395Z,32.20
2019-04-06T14:52:15.972Z,32.22
2019-04-06T14:54:51.014Z,32.23
2019-04-06T14:57:24.707Z,32.23
2019-04-06T14:59:58.268Z,32.31
2019-04-06T15:02:31.755Z,32.63
2019-04-06T15:05:06.045Z,32.60
2019-04-06T15:07:39.655Z,32.56
2019-04-06T15:10:13.011Z,32.79
2019-04-06T15:12:46.759Z,32.84
2019-04-06T15:15:20.240Z,32.54
2019-04-06T15:17:54.864Z,32.72
2019-04-06T15:20:30.336Z,32.64
2019-04-06T15:23:03.799Z,32.54
2019-04-06T15:25:37.386Z,32.45
2019-04-06T15:28:10.789Z,32.49
2019-04-06T15:30:44.211Z,32.49
2019-04-06T15:33:17.631Z,32.63
2019-04-06T15:35:51.089Z,32.63
2019-04-06T15:38:24.685Z,32.57
2019-04-06T15:40:58.079Z,32.58
2019-04-06T15:43:31.734Z,32.76
2019-04-06T15:46:05.052Z,32.69
2019-04-06T15:48:40.066Z,32.85
2019-04-06T15:51:13.966Z,33.05
2019-04-06T15:53:47.588Z,33.11
2019-04-06T15:56:21.055Z,33.03
2019-04-06T15:58:56.409Z,33.08
2019-04-06T16:01:29.935Z,33.09
2019-04-06T16:04:03.763Z,33.08
2019-04-06T16:06:37.942Z,33.02
2019-04-06T16:09:11.404Z,33.07
2019-04-06T16:11:45.223Z,33.11
2019-04-06T16:14:18.827Z,33.03
2019-04-06T16:16:52.323Z,33.04
2019-04-06T16:19:25.781Z,33.09
2019-04-06T16:21:59.586Z,33.09
2019-04-06T16:24:33.405Z,32.91
2019-04-06T16:27:09.476Z,32.94
2019-04-06T16:29:42.294Z,32.99
2019-04-06T16:32:16.067Z,32.97
2019-04-06T16:34:49.739Z,32.95
2019-04-06T16:37:23.050Z,33.02
2019-04-06T16:39:56.771Z,33.00
2019-04-06T16:42:30.093Z,32.93
2019-04-06T16:45:05.071Z,33.04
2019-04-06T16:47:38.401Z,33.11
2019-04-06T16:50:11.809Z,33.00
2019-04-06T16:52:45.315Z,33.06
2019-04-06T16:55:18.731Z,33.03
2019-04-06T16:57:52.144Z,33.10
2019-04-06T17:00:25.505Z,33.07
2019-04-06T17:02:58.786Z,33.07
2019-04-06T17:05:32.242Z,33.04
2019-04-06T17:08:11.876Z,32.86
2019-04-06T17:10:41.597Z,33.04
2019-04-06T17:13:15.161Z,33.13
2019-04-06T17:15:48.556Z,33.21
2019-04-06T17:18:21.828Z,33.28
2019-04-06T17:20:55.280Z,33.30
2019-04-06T17:23:28.771Z,33.27
2019-04-06T17:26:02.827Z,33.38
2019-04-06T17:28:36.665Z,33.43
2019-04-06T17:31:10.534Z,33.40
2019-04-06T17:33:44.094Z,33.53
2019-04-06T17:36:18.227Z,34.00
2019-04-06T17:38:51.662Z,34.14
2019-04-06T17:41:24.994Z,34.25
2019-04-06T17:43:58.322Z,34.30
2019-04-06T17:46:31.659Z,34.44
2019-04-06T17:49:06.614Z,34.50
2019-04-06T17:51:40.129Z,34.45
2019-04-06T17:54:14.526Z,34.51
2019-04-06T17:56:48.054Z,34.50
2019-04-06T17:59:21.425Z,34.55
2019-04-06T18:01:54.830Z,34.61
2019-04-06T18:04:29.543Z,34.58
2019-04-06T18:07:02.816Z,34.57
2019-04-06T18:09:36.438Z,34.62
2019-04-06T18:12:10.126Z,34.65
2019-04-06T18:14:43.751Z,34.62
2019-04-06T18:17:17.119Z,34.65
2019-04-06T18:19:50.721Z,34.73
2019-04-06T18:22:24.277Z,34.70
2019-04-06T18:24:58.768Z,34.85
2019-04-06T18:27:31.936Z,34.89
2019-04-06T18:30:11.370Z,34.90
2019-04-06T18:32:44.894Z,34.96
2019-04-06T18:35:18.309Z,34.99
2019-04-06T18:37:52.706Z,35.00
2019-04-06T18:40:26.154Z,35.00
2019-04-06T18:42:59.825Z,35.02
2019-04-06T18:45:33.255Z,34.94
2019-04-06T18:48:06.728Z,35.09
2019-04-06T18:50:40.643Z,35.00
2019-04-06T18:53:14.113Z,34.95
2019-04-06T18:55:47.465Z,34.97
2019-04-06T18:58:20.948Z,35.20
2019-04-06T19:00:56.261Z,35.35
2019-04-06T19:03:29.953Z,35.28
2019-04-06T19:06:03.444Z,35.25
2019-04-06T19:08:36.774Z,35.22
2019-04-06T19:11:10.453Z,35.22
2019-04-06T19:13:43.691Z,35.12
2019-04-06T19:16:17.844Z,35.22
2019-04-06T19:18:51.429Z,35.49
2019-04-06T19:21:25.172Z,35.57
2019-04-06T19:23:58.959Z,35.51
2019-04-06T19:26:37.289Z,35.36
2019-04-06T19:29:10.825Z,35.58
2019-04-06T19:31:44.520Z,35.58
2019-04-06T19:34:17.910Z,36.63
2019-04-06T19:36:51.216Z,36.53
2019-04-06T19:39:25.136Z,36.52
2019-04-06T19:41:58.617Z,36.23
2019-04-06T19:44:32.453Z,36.25
2019-04-06T19:47:06.446Z,36.19
2019-04-06T19:49:39.910Z,36.18
2019-04-06T19:52:13.957Z,36.17
2019-04-06T19:54:47.299Z,36.17
2019-04-06T19:57:20.707Z,36.16
2019-04-06T19:59:54.086Z,36.17
2019-04-06T20:02:27.481Z,36.19
2019-04-06T20:07:33.680Z,36.08
2019-04-06T20:10:07.454Z,36.11
2019-04-06T20:12:41.288Z,36.16
2019-04-06T20:15:14.768Z,36.18
2019-04-06T20:17:48.076Z,36.16
2019-04-06T20:20:22.311Z,36.17
2019-04-06T20:22:55.574Z,36.21
2019-04-06T20:25:29.527Z,36.19
2019-04-06T20:28:04.646Z,36.20
2019-04-06T20:30:37.908Z,36.17
2019-04-06T20:33:11.945Z,36.18
2019-04-06T20:35:45.243Z,36.21
2019-04-06T20:38:18.743Z,36.07
2019-04-06T20:40:52.622Z,36.09
2019-04-06T20:43:26.362Z,36.18
2019-04-06T20:45:59.673Z,35.81
2019-04-06T20:48:33.669Z,35.76
2019-04-06T20:51:07.271Z,35.64
2019-04-06T20:53:43.127Z,35.82
2019-04-06T20:56:17.116Z,35.88
2019-04-06T20:58:51.167Z,35.87
2019-04-06T21:01:24.732Z,35.81
2019-04-06T21:04:02.396Z,35.86
2019-04-06T21:06:33.457Z,35.82
2019-04-06T21:09:07.175Z,36.02
2019-04-06T21:11:40.515Z,36.08
2019-04-06T21:14:14.378Z,36.13
2019-04-06T21:16:48.232Z,36.23
2019-04-06T21:19:21.718Z,36.27
2019-04-06T21:21:55.571Z,36.43
2019-04-06T21:24:28.984Z,36.47
2019-04-06T21:27:03.265Z,36.31
2019-04-06T21:29:36.700Z,36.56
2019-04-06T21:32:10.573Z,36.64
2019-04-06T21:34:43.884Z,36.57
2019-04-06T21:37:17.855Z,36.62
2019-04-06T21:39:51.217Z,36.67
2019-04-06T21:42:24.631Z,36.69
2019-04-06T21:44:58.243Z,36.66
2019-04-06T21:47:32.471Z,36.60
2019-04-06T21:50:06.881Z,36.69
2019-04-06T21:52:40.438Z,36.66
2019-04-06T21:55:15.178Z,36.61
2019-04-06T21:57:48.530Z,36.61
2019-04-06T22:00:22.512Z,36.52
2019-04-06T22:02:57.820Z,36.61
2019-04-06T22:05:31.666Z,36.71
2019-04-06T22:08:05.262Z,36.77
2019-04-06T22:10:39.002Z,36.77
2019-04-06T22:13:13.122Z,36.74
2019-04-06T22:15:47.185Z,36.72
2019-04-06T22:18:20.559Z,36.85
2019-04-06T22:20:54.548Z,36.62
2019-04-06T22:23:39.748Z,36.58
2019-04-06T22:26:03.226Z,36.60
2019-04-06T22:28:36.828Z,36.56
2019-04-06T22:31:10.223Z,36.56
2019-04-06T22:33:43.577Z,36.59
2019-04-06T22:36:16.995Z,36.61
2019-04-06T22:38:50.319Z,36.63
2019-04-06T22:41:23.917Z,36.61
2019-04-06T22:43:57.279Z,36.68
2019-04-06T22:46:31.568Z,36.73
2019-04-06T22:49:05.609Z,36.70
2019-04-06T22:51:39.109Z,36.70
2019-04-06T22:54:12.820Z,36.66
2019-04-06T22:56:47.246Z,36.67
2019-04-06T22:59:20.559Z,36.70
2019-04-06T23:01:53.982Z,36.72
2019-04-06T23:04:27.375Z,36.72
2019-04-06T23:07:00.887Z,36.78
2019-04-06T23:09:34.234Z,36.75
2019-04-06T23:12:07.848Z,36.76
2019-04-06T23:14:41.149Z,36.77
2019-04-06T23:17:14.718Z,36.81
2019-04-06T23:19:48.481Z,36.82
2019-04-06T23:22:21.949Z,36.78
2019-04-06T23:24:56.349Z,36.82
2019-04-06T23:27:30.763Z,36.83
2019-04-06T23:30:07.626Z,36.81
2019-04-06T23:32:41.264Z,36.80
2019-04-06T23:35:15.214Z,36.80
2019-04-06T23:37:48.593Z,36.81
2019-04-06T23:40:22.456Z,36.80
2019-04-06T23:42:56.550Z,36.82
2019-04-06T23:45:30.059Z,36.82
2019-04-06T23:48:03.736Z,36.82
2019-04-06T23:50:39.523Z,36.83
2019-04-06T23:53:13.621Z,36.82
2019-04-06T23:55:47.024Z,36.84
2019-04-06T23:58:20.949Z,36.84
